Time;durP1;ratioP1;P1;durP2;ratioP2;P2;SDS_P1;SDS_P2;PMS_P1;PMS_P2;Temp;Humidity;BMP_temperature;BMP_pressure;BME280_temperature;BME280_humidity;BME280_pressure;Samples;Min_cycle;Max_cycle;Signal;HPM_P1;HPM_P2
2023/01/30 00:00:09;;;;;;;30.95;13.55;;;;;;;-1.41;89.81;93528.88;5068760;28;20028;-47
2023/01/30 00:02:34;;;;;;;31.95;15.80;;;;;;;-1.30;89.24;93534.47;5068832;28;20031;-47
2023/01/30 00:05:00;;;;;;;25.55;13.48;;;;;;;-1.42;89.45;93538.22;5068778;28;20028;-47
2023/01/30 00:07:25;;;;;;;28.98;14.90;;;;;;;-1.55;90.42;93543.94;5068853;28;20032;-47
2023/01/30 00:09:50;;;;;;;30.55;14.48;;;;;;;-1.50;89.60;93537.88;5068697;28;20016;-47
2023/01/30 00:12:16;;;;;;;28.65;14.25;;;;;;;-1.47;88.94;93545.03;5068567;28;20021;-47
2023/01/30 00:14:41;;;;;;;32.55;15.00;;;;;;;-1.54;89.01;93540.03;5068243;28;20027;-47
2023/01/30 00:17:07;;;;;;;31.98;15.38;;;;;;;-1.65;89.45;93535.19;5068669;28;20025;-47
2023/01/30 00:19:32;;;;;;;30.42;13.80;;;;;;;-1.58;89.58;93534.78;5068577;28;20024;-47
2023/01/30 00:21:57;;;;;;;26.52;13.68;;;;;;;-1.56;88.74;93539.75;5068545;28;20440;-47
2023/01/30 00:24:23;;;;;;;22.95;12.30;;;;;;;-1.63;88.80;93543.59;5068012;28;20500;-48
2023/01/30 00:26:48;;;;;;;31.00;13.85;;;;;;;-1.71;88.76;93539.00;5068241;28;20029;-46
2023/01/30 00:29:14;;;;;;;24.50;14.13;;;;;;;-1.73;88.76;93541.41;5068204;28;20032;-48
2023/01/30 00:31:39;;;;;;;25.75;12.77;;;;;;;-1.65;89.13;93547.97;5067708;28;20493;-47
2023/01/30 00:34:04;;;;;;;24.33;11.70;;;;;;;-1.74;88.66;93539.94;5067805;28;20549;-47
2023/01/30 00:36:30;;;;;;;44.35;22.20;;;;;;;-1.65;88.17;93535.19;5067924;28;20025;-49
2023/01/30 00:38:57;;;;;;;24.38;15.55;;;;;;;-1.68;87.31;93546.19;5067943;28;20021;-48
2023/01/30 00:41:22;;;;;;;26.23;14.13;;;;;;;-1.77;87.44;93540.84;5068340;28;20032;-46
2023/01/30 00:49:17;;;;;;;28.65;14.43;;;;;;;-1.86;88.47;93536.28;5066786;28;20613;-47
2023/01/30 00:51:43;;;;;;;17.95;11.45;;;;;;;-1.84;88.50;93538.53;5067831;28;20028;-47
2023/01/30 00:54:08;;;;;;;28.67;11.82;;;;;;;-1.82;88.09;93536.13;5067752;28;20105;-47
2023/01/30 00:56:34;;;;;;;29.98;15.50;;;;;;;-1.81;87.35;93541.06;5066440;28;20028;-47
2023/01/30 00:58:59;;;;;;;23.08;11.77;;;;;;;-1.89;88.14;93537.25;5082012;28;20059;-47
2023/01/30 01:01:25;;;;;;;25.83;13.02;;;;;;;-1.94;88.08;93529.75;5070703;28;20028;-46
2023/01/30 01:03:50;;;;;;;26.27;13.68;;;;;;;-1.89;88.18;93539.19;5067556;28;20036;-48
2023/01/30 01:06:16;;;;;;;24.70;13.32;;;;;;;-1.82;88.82;93534.13;5067803;28;20050;-47
2023/01/30 01:08:41;;;;;;;25.58;13.20;;;;;;;-1.89;88.71;93531.81;5068037;28;20035;-48
2023/01/30 01:11:07;;;;;;;25.95;12.88;;;;;;;-1.90;89.12;93533.03;5067602;28;20102;-46
2023/01/30 01:13:32;;;;;;;25.67;14.30;;;;;;;-1.91;89.36;93523.44;5067466;28;20181;-48
2023/01/30 01:15:57;;;;;;;30.33;15.98;;;;;;;-1.85;89.10;93529.69;5067636;28;20024;-48
2023/01/30 01:18:23;;;;;;;27.88;14.85;;;;;;;-1.89;88.27;93525.66;5067364;28;20032;-47
2023/01/30 01:20:48;;;;;;;23.40;12.32;;;;;;;-1.69;87.76;93529.19;5067398;28;20082;-47
2023/01/30 01:23:14;;;;;;;25.80;12.10;;;;;;;-1.69;87.53;93523.06;5067222;28;20036;-48
2023/01/30 01:25:39;;;;;;;25.73;12.68;;;;;;;-1.74;88.54;93516.34;5067107;28;20024;-47
2023/01/30 01:28:05;;;;;;;29.90;12.25;;;;;;;-1.52;87.41;93522.06;5067006;28;20033;-47
2023/01/30 01:30:30;;;;;;;17.52;11.07;;;;;;;-1.57;87.33;93522.75;5067286;28;20024;-47
2023/01/30 01:32:56;;;;;;;22.38;13.45;;;;;;;-1.70;87.35;93526.97;5073804;28;20051;-47
2023/01/30 01:35:21;;;;;;;22.52;13.38;;;;;;;-1.86;87.96;93514.66;5086751;28;20035;-47
2023/01/30 01:37:47;;;;;;;21.67;11.50;;;;;;;-1.72;88.08;93503.06;5087375;28;20035;-47
2023/01/30 01:43:17;;;;;;;24.02;11.60;;;;;;;-1.77;87.69;93511.09;5080811;28;20035;-47
2023/01/30 01:45:43;;;;;;;23.50;12.93;;;;;;;-1.96;88.05;93510.56;5067506;28;20048;-47
2023/01/30 01:48:13;;;;;;;21.83;12.05;;;;;;;-1.87;88.07;93496.94;5065922;28;20551;-46
2023/01/30 01:51:10;;;;;;;22.40;10.52;;;;;;;-1.61;87.32;93505.97;5066092;28;20035;-48
2023/01/30 01:53:43;;;;;;;24.75;12.25;;;;;;;-1.94;87.42;93515.50;5065979;28;20047;-47
2023/01/30 01:56:10;;;;;;;23.48;10.95;;;;;;;-1.85;87.42;93510.75;5067068;28;20169;-47
2023/01/30 01:58:41;;;;;;;25.73;12.23;;;;;;;-1.87;87.39;93507.75;5076309;28;20546;-50
2023/01/30 02:01:06;;;;;;;26.75;12.13;;;;;;;-2.01;87.92;93484.16;5070918;28;20082;-47
2023/01/30 02:03:36;;;;;;;23.05;11.38;;;;;;;-1.94;87.13;93502.72;5067324;28;20028;-48
2023/01/30 02:06:02;;;;;;;27.10;12.57;;;;;;;-1.95;87.96;93500.47;5065709;28;20032;-46
2023/01/30 02:08:37;;;;;;;21.23;11.40;;;;;;;-1.82;87.13;93492.81;5066666;28;20025;-48
2023/01/30 02:11:10;;;;;;;26.10;11.30;;;;;;;-2.02;87.61;93495.44;5066940;28;20087;-47
2023/01/30 02:13:35;;;;;;;16.80;10.13;;;;;;;-2.01;87.88;93486.84;5065549;28;20048;-46
2023/01/30 02:16:03;;;;;;;20.98;9.65;;;;;;;-1.90;87.73;93478.16;5066115;28;20028;-47
2023/01/30 02:18:29;;;;;;;22.20;11.93;;;;;;;-1.89;86.46;93488.53;5066298;28;20064;-48
2023/01/30 02:21:15;;;;;;;21.63;10.75;;;;;;;-2.00;87.46;93485.66;5066824;28;20029;-47
2023/01/30 02:23:53;;;;;;;24.67;11.65;;;;;;;-2.04;87.86;93490.50;5066699;28;20063;-47
2023/01/30 02:26:34;;;;;;;26.30;11.07;;;;;;;-2.13;88.80;93482.47;5066542;28;20567;-49
2023/01/30 02:29:17;;;;;;;17.48;9.95;;;;;;;-2.07;88.12;93482.56;5066694;28;20029;-47
2023/01/30 02:31:53;;;;;;;22.83;11.52;;;;;;;-2.25;88.33;93463.84;5066438;28;20131;-47
2023/01/30 02:34:54;;;;;;;21.73;11.05;;;;;;;-2.25;89.03;93469.25;5086065;28;20027;-47
2023/01/30 02:37:33;;;;;;;19.92;9.82;;;;;;;-2.27;89.67;93463.56;5067277;28;20063;-47
2023/01/30 02:40:10;;;;;;;27.25;11.10;;;;;;;-2.21;89.55;93462.44;5073444;28;20044;-47
2023/01/30 02:42:59;;;;;;;18.83;9.52;;;;;;;-2.28;90.04;93462.06;5065319;28;20043;-47
2023/01/30 02:45:53;;;;;;;14.35;8.68;;;;;;;-2.12;88.97;93465.03;5067287;28;20028;-47
2023/01/30 02:48:45;;;;;;;20.38;10.20;;;;;;;-2.29;89.87;93461.28;5069189;28;20051;-47
2023/01/30 02:51:18;;;;;;;18.45;8.98;;;;;;;-2.31;90.09;93463.72;5069836;28;20124;-47
2023/01/30 02:53:46;;;;;;;18.77;9.95;;;;;;;-2.23;90.06;93472.94;5068861;28;20028;-47
2023/01/30 02:56:11;;;;;;;19.60;10.60;;;;;;;-2.34;89.93;93478.19;5069021;28;20036;-48
2023/01/30 02:58:41;;;;;;;21.80;10.38;;;;;;;-2.19;89.57;93480.91;5080894;28;20741;-47
2023/01/30 03:01:28;;;;;;;24.63;10.43;;;;;;;-2.30;89.81;93476.75;5075636;28;20036;-48
2023/01/30 03:04:17;;;;;;;22.23;10.35;;;;;;;-2.31;90.30;93469.88;5070071;28;20041;-50
2023/01/30 03:06:45;;;;;;;;;;;;;;;-2.23;90.53;93464.09;5069643;28;20052;-50
2023/01/30 03:10:01;;;;;;;24.00;10.30;;;;;;;-2.26;91.00;93463.09;5070103;28;20366;-48
2023/01/30 03:12:33;;;;;;;20.63;10.20;;;;;;;-2.15;90.48;93468.69;5026987;28;20042;-47
2023/01/30 03:15:35;;;;;;;21.85;10.75;;;;;;;-2.25;90.82;93467.25;5064437;28;20445;-47
2023/01/30 03:18:01;;;;;;;22.80;10.30;;;;;;;-2.19;90.24;93456.56;5048990;28;20036;-47
2023/01/30 03:20:27;;;;;;;27.25;11.43;;;;;;;-2.24;90.54;93452.53;5069698;28;20028;-48
2023/01/30 03:22:53;;;;;;;67.60;32.00;;;;;;;-2.21;90.48;93462.44;5069215;28;20031;-50
2023/01/30 03:25:21;;;;;;;33.55;16.17;;;;;;;-2.21;90.03;93458.97;5069708;28;20036;-48
2023/01/30 03:27:49;;;;;;;32.83;17.13;;;;;;;-2.14;89.73;93456.63;5066881;28;20016;-47
2023/01/30 03:30:15;;;;;;;33.53;15.38;;;;;;;-2.36;89.78;93453.56;5069782;28;20025;-47
2023/01/30 03:32:41;;;;;;;34.92;16.55;;;;;;;-2.40;90.43;93450.28;5074019;28;20777;-46
2023/01/30 03:35:06;;;;;;;22.88;10.65;;;;;;;-2.39;90.68;93449.09;5086611;28;20020;-47
2023/01/30 03:37:32;;;;;;;21.08;11.52;;;;;;;-2.31;91.06;93450.94;5069078;28;20116;-47
2023/01/30 03:39:58;;;;;;;27.25;13.35;;;;;;;-2.29;91.81;93455.88;5068137;28;20070;-47
2023/01/30 03:42:23;;;;;;;30.02;13.85;;;;;;;-2.27;90.97;93450.03;5068986;28;20032;-46
2023/01/30 03:44:48;;;;;;;24.00;11.98;;;;;;;-2.13;90.97;93444.63;5069356;28;20102;-46
2023/01/30 03:47:14;;;;;;;22.85;13.52;;;;;;;-2.12;90.46;93443.38;5069184;28;20029;-47
2023/01/30 03:49:39;;;;;;;25.35;10.95;;;;;;;-2.06;90.24;93441.53;5069071;28;20559;-48
2023/01/30 03:52:05;;;;;;;22.58;11.30;;;;;;;-2.14;90.25;93440.41;5069058;28;20013;-47
2023/01/30 03:54:30;;;;;;;21.13;11.27;;;;;;;-2.21;90.34;93438.09;5068948;28;20020;-47
2023/01/30 03:56:55;;;;;;;27.92;13.98;;;;;;;-2.16;90.71;93436.66;5068719;28;20020;-47
2023/01/30 03:59:21;;;;;;;23.92;12.07;;;;;;;-2.14;89.95;93435.00;5084824;28;20024;-48
2023/01/30 04:01:46;;;;;;;20.65;12.13;;;;;;;-2.10;90.25;93432.84;5069145;28;20031;-47
2023/01/30 04:04:12;;;;;;;21.88;10.80;;;;;;;-2.16;90.28;93431.25;5069078;28;20028;-47
2023/01/30 04:06:37;;;;;;;21.52;11.70;;;;;;;-2.12;90.98;93432.56;5068945;28;20016;-47
2023/01/30 04:09:03;;;;;;;29.10;12.77;;;;;;;-2.21;90.57;93421.88;5068943;28;20408;-47
2023/01/30 04:11:28;;;;;;;23.08;11.82;;;;;;;-2.33;90.90;93422.88;5068507;28;20153;-47
2023/01/30 04:13:53;;;;;;;22.92;12.32;;;;;;;-2.36;91.61;93429.25;5068577;28;20024;-47
2023/01/30 04:16:24;;;;;;;24.65;12.35;;;;;;;-2.13;90.26;93425.69;5068402;28;20032;-49
2023/01/30 04:18:50;;;;;;;18.98;10.30;;;;;;;-2.13;90.32;93433.03;5068287;28;20029;-48
2023/01/30 04:21:15;;;;;;;22.75;9.88;;;;;;;-2.10;90.14;93430.13;5068515;28;20027;-46
2023/01/30 04:23:41;;;;;;;19.13;10.45;;;;;;;-2.27;90.58;93423.00;5068566;28;20051;-47
2023/01/30 04:26:07;;;;;;;23.35;10.30;;;;;;;-2.01;89.99;93424.63;5068478;28;20103;-47
2023/01/30 04:28:33;;;;;;;21.50;11.43;;;;;;;-2.28;90.64;93424.94;5068383;28;20086;-47
2023/01/30 04:30:58;;;;;;;22.88;10.02;;;;;;;-2.39;91.28;93420.09;5067952;28;20510;-48
2023/01/30 04:33:24;;;;;;;17.98;10.43;;;;;;;-2.43;92.35;93416.09;5079575;28;20050;-48
2023/01/30 04:35:54;;;;;;;20.15;11.82;;;;;;;-2.31;92.75;93423.16;5088837;28;20028;-47
2023/01/30 04:38:20;;;;;;;24.38;11.63;;;;;;;-2.33;92.47;93422.88;5088452;28;20695;-47
2023/01/30 04:40:53;;;;;;;23.52;12.30;;;;;;;-2.32;91.89;93421.69;5088720;28;20091;-47
2023/01/30 04:43:20;;;;;;;25.33;12.70;;;;;;;-2.26;92.08;93419.81;5088272;28;20030;-47
2023/01/30 04:45:47;;;;;;;25.20;12.55;;;;;;;-2.29;91.91;93426.16;5088700;28;20030;-48
2023/01/30 04:48:13;;;;;;;24.27;13.10;;;;;;;-2.46;92.59;93425.13;5088094;28;20807;-46
2023/01/30 04:50:40;;;;;;;22.98;11.32;;;;;;;-2.22;91.52;93430.44;5088113;28;20491;-47
2023/01/30 04:53:06;;;;;;;24.60;11.32;;;;;;;-2.30;92.08;93424.66;5088045;28;20027;-48
2023/01/30 04:55:31;;;;;;;20.77;11.07;;;;;;;-2.31;92.14;93418.50;5088099;28;20020;-47
2023/01/30 04:57:56;;;;;;;27.15;12.95;;;;;;;-2.09;91.75;93417.38;5082536;28;20029;-48
2023/01/30 05:00:22;;;;;;;19.60;11.00;;;;;;;-2.23;91.49;93421.56;5067551;28;20029;-47
2023/01/30 05:02:48;;;;;;;28.38;12.27;;;;;;;-2.39;92.09;93414.69;5068010;28;20107;-47
2023/01/30 05:05:13;;;;;;;25.00;12.82;;;;;;;-2.23;91.93;93418.88;5067813;28;20028;-47
2023/01/30 05:07:39;;;;;;;22.52;11.82;;;;;;;-2.31;91.96;93417.75;5067671;28;20012;-47
2023/01/30 05:10:04;;;;;;;26.92;14.57;;;;;;;-2.35;92.08;93420.66;5066392;28;20027;-47
2023/01/30 05:12:30;;;;;;;27.38;13.57;;;;;;;-2.36;92.40;93421.13;5067735;28;20031;-46
2023/01/30 05:14:55;;;;;;;26.20;13.15;;;;;;;-2.37;93.32;93417.69;5067433;28;20801;-47
2023/01/30 05:17:21;;;;;;;23.73;12.60;;;;;;;-2.31;93.21;93420.47;5067810;28;20017;-48
2023/01/30 05:19:46;;;;;;;20.05;10.20;;;;;;;-2.28;92.55;93416.84;5067381;28;20408;-47
2023/01/30 05:22:12;;;;;;;24.90;12.02;;;;;;;-2.37;92.42;93419.63;5067379;28;20024;-49
2023/01/30 05:24:37;;;;;;;24.23;12.05;;;;;;;-2.53;93.26;93409.28;5067152;28;20023;-47
2023/01/30 05:27:03;;;;;;;22.17;12.00;;;;;;;-2.43;93.27;93418.78;5067368;28;20028;-47
2023/01/30 05:29:29;;;;;;;21.58;11.88;;;;;;;-2.47;93.25;93405.44;5067399;28;20054;-48
2023/01/30 05:31:54;;;;;;;22.83;11.00;;;;;;;-2.36;93.32;93415.72;5066726;28;20052;-47
2023/01/30 05:34:20;;;;;;;29.70;13.73;;;;;;;-2.30;92.97;93427.38;5086420;28;20530;-48
2023/01/30 05:36:45;;;;;;;23.50;11.82;;;;;;;-2.25;92.40;93417.88;5087546;28;20028;-47
2023/01/30 05:39:11;;;;;;;24.10;12.50;;;;;;;-2.38;92.49;93418.13;5087543;28;20051;-47
2023/01/30 05:41:36;;;;;;;22.67;12.68;;;;;;;-2.29;93.03;93423.44;5087515;28;20040;-47
2023/01/30 05:44:02;;;;;;;24.42;12.55;;;;;;;-2.30;92.07;93428.09;5087588;28;20465;-47
2023/01/30 05:46:27;;;;;;;21.58;12.32;;;;;;;-2.33;91.77;93418.22;5087740;28;20541;-47
2023/01/30 05:48:52;;;;;;;20.67;11.38;;;;;;;-2.40;92.21;93418.59;5086343;28;20024;-47
2023/01/30 05:51:20;;;;;;;22.90;12.07;;;;;;;-2.28;92.28;93424.94;5087435;28;20090;-47
2023/01/30 05:53:46;;;;;;;24.75;12.15;;;;;;;-2.23;92.12;93426.25;5087535;28;20097;-47
2023/01/30 05:56:11;;;;;;;25.40;10.82;;;;;;;-2.38;92.01;93402.66;5087362;28;20543;-47
2023/01/30 05:58:37;;;;;;;24.48;10.70;;;;;;;-2.25;91.98;93428.69;5076424;28;20017;-47
2023/01/30 06:01:05;;;;;;;21.55;10.85;;;;;;;-2.06;91.31;93421.84;5067041;28;20036;-47
2023/01/30 06:03:30;;;;;;;21.50;11.75;;;;;;;-2.10;90.13;93426.72;5067438;28;20028;-48
2023/01/30 06:05:56;;;;;;;22.60;11.43;;;;;;;-2.18;90.52;93425.56;5066030;28;20028;-48
2023/01/30 06:08:22;;;;;;;21.80;11.73;;;;;;;-2.10;90.95;93429.41;5066962;28;20484;-49
2023/01/30 06:10:47;;;;;;;20.15;11.20;;;;;;;-2.17;90.36;93429.78;5067086;28;20115;-49
2023/01/30 06:13:13;;;;;;;22.05;11.70;;;;;;;-1.99;89.88;93429.59;5067344;28;20032;-48
2023/01/30 06:15:38;;;;;;;21.40;11.50;;;;;;;-2.16;90.36;93426.59;5066859;28;20770;-48
2023/01/30 06:18:04;;;;;;;22.92;11.88;;;;;;;-2.15;90.88;93421.94;5066713;28;20025;-49
2023/01/30 06:20:29;;;;;;;25.63;14.43;;;;;;;-2.12;90.21;93424.44;5066953;28;20021;-46
2023/01/30 06:22:55;;;;;;;31.90;15.27;;;;;;;-2.08;90.37;93430.41;5070050;28;20025;-50
2023/01/30 06:25:20;;;;;;;21.75;9.75;;;;;;;-2.08;88.72;93421.56;5070746;28;20036;-49
2023/01/30 06:27:46;;;;;;;20.20;10.38;;;;;;;-2.20;89.28;93414.47;5070593;28;20020;-47
2023/01/30 06:30:12;;;;;;;19.73;10.73;;;;;;;-2.21;89.53;93429.22;5070435;28;20043;-47
2023/01/30 06:32:37;;;;;;;22.67;11.38;;;;;;;-2.06;88.99;93425.31;5074817;28;20491;-49
2023/01/30 06:35:03;;;;;;;19.45;9.82;;;;;;;-2.16;89.08;93423.16;5091046;28;20035;-47
2023/01/30 06:37:29;;;;;;;19.48;10.32;;;;;;;-2.18;89.34;93420.91;5090468;28;20484;-48
2023/01/30 06:39:54;;;;;;;26.48;13.60;;;;;;;-2.10;88.67;93422.03;5090674;28;20085;-47
2023/01/30 06:42:19;;;;;;;19.13;9.00;;;;;;;-2.14;89.37;93426.88;5090541;28;20027;-49
2023/01/30 06:44:45;;;;;;;19.35;9.15;;;;;;;-2.02;88.85;93428.56;5087124;28;20032;-47
2023/01/30 06:47:10;;;;;;;17.48;10.05;;;;;;;-2.12;87.84;93427.16;5070169;28;20028;-46
2023/01/30 06:49:36;;;;;;;20.85;10.23;;;;;;;-2.06;88.51;93428.00;5069779;28;20028;-48
2023/01/30 06:52:01;;;;;;;23.92;12.85;;;;;;;-2.00;88.55;93436.97;5090262;28;20077;-48
2023/01/30 06:54:27;;;;;;;18.27;9.93;;;;;;;-2.02;88.61;93435.94;5090608;28;20028;-48
2023/01/30 06:56:52;;;;;;;17.52;9.18;;;;;;;-2.04;88.47;93435.66;5090295;28;20438;-49
2023/01/30 06:59:18;;;;;;;19.48;10.68;;;;;;;-1.93;88.42;93439.28;5073432;28;20032;-48
2023/01/30 07:01:43;;;;;;;20.38;11.35;;;;;;;-1.95;88.09;93444.41;5011864;27;20076;-50
2023/01/30 07:04:09;;;;;;;17.20;8.57;;;;;;;-1.89;87.32;93450.66;5060773;28;20552;-50
2023/01/30 07:06:34;;;;;;;23.95;11.05;;;;;;;-1.94;87.59;93440.50;5054746;28;20020;-49
2023/01/30 07:08:59;;;;;;;18.95;10.80;;;;;;;-1.82;86.91;93454.94;5046118;28;20043;-49
2023/01/30 07:11:25;;;;;;;12.07;7.97;;;;;;;-1.88;86.73;93446.72;5057732;28;20070;-50
2023/01/30 07:13:50;;;;;;;13.85;8.43;;;;;;;-1.86;86.59;93446.25;5059342;28;20090;-48
2023/01/30 07:16:16;;;;;;;18.42;11.27;;;;;;;-1.76;85.99;93448.41;5058761;28;20683;-48
2023/01/30 07:18:41;;;;;;;21.45;10.45;;;;;;;-1.63;86.64;93443.44;5060320;28;20022;-47
2023/01/30 07:21:07;;;;;;;16.08;9.57;;;;;;;-1.66;86.10;93444.34;5058686;28;20474;-47
2023/01/30 07:23:32;;;;;;;16.52;9.32;;;;;;;-1.61;86.31;93437.53;5059263;28;20495;-47
2023/01/30 07:25:58;;;;;;;15.88;9.27;;;;;;;-1.52;85.83;93433.97;5061480;28;20550;-48
2023/01/30 07:28:23;;;;;;;19.38;10.02;;;;;;;-1.47;85.64;93439.44;5057889;28;20025;-48
2023/01/30 07:30:51;;;;;;;21.80;12.07;;;;;;;-1.39;84.69;93437.09;5059014;28;20013;-48
2023/01/30 07:33:17;;;;;;;19.20;10.23;;;;;;;-1.40;84.48;93433.63;5057317;28;20067;-48
2023/01/30 07:35:43;;;;;;;15.90;8.82;;;;;;;-1.29;83.95;93433.03;5058785;28;20048;-48
2023/01/30 07:38:08;;;;;;;19.48;9.57;;;;;;;-1.54;84.08;93435.16;5058570;28;20442;-49
2023/01/30 07:40:34;;;;;;;18.50;10.40;;;;;;;-1.31;83.44;93427.34;5059646;28;20078;-49
2023/01/30 07:43:00;;;;;;;14.85;7.95;;;;;;;-1.44;83.48;93429.63;5059945;28;20024;-47
2023/01/30 07:45:28;;;;;;;14.57;8.68;;;;;;;-1.33;83.66;93437.91;5059050;28;20087;-50
2023/01/30 07:47:53;;;;;;;16.60;9.77;;;;;;;-1.50;84.16;93434.22;5056759;28;20165;-48
2023/01/30 07:50:19;;;;;;;15.63;8.98;;;;;;;-1.30;83.55;93429.56;5053978;28;20054;-47
2023/01/30 07:52:44;;;;;;;14.80;8.98;;;;;;;-1.27;83.95;93433.31;5049114;28;20035;-47
2023/01/30 07:55:10;;;;;;;17.00;9.60;;;;;;;-1.21;83.02;93431.44;5056138;28;20484;-47
2023/01/30 07:57:35;;;;;;;17.55;9.23;;;;;;;-1.17;83.05;93431.97;5060487;28;20415;-46
2023/01/30 08:00:01;;;;;;;20.98;9.65;;;;;;;-1.26;83.42;93416.59;5057495;28;20106;-48
2023/01/30 08:02:26;;;;;;;18.33;10.45;;;;;;;-1.10;82.21;93426.13;5054517;28;20036;-47
2023/01/30 08:04:52;;;;;;;20.17;9.38;;;;;;;-1.11;82.16;93419.22;5057585;28;20708;-49
2023/01/30 08:07:18;;;;;;;20.38;9.65;;;;;;;-1.09;82.05;93420.25;5068828;28;20033;-47
2023/01/30 08:09:43;;;;;;;22.65;11.27;;;;;;;-0.96;81.90;93419.91;5062014;28;20029;-47
2023/01/30 08:12:09;;;;;;;23.95;11.80;;;;;;;-0.87;81.70;93412.34;5068393;28;20040;-48
2023/01/30 08:14:34;;;;;;;26.15;12.60;;;;;;;-1.16;81.31;93412.53;5061702;28;20032;-47
2023/01/30 08:16:59;;;;;;;21.13;11.07;;;;;;;-1.09;81.53;93417.53;5048637;28;20413;-49
2023/01/30 08:19:25;;;;;;;20.40;10.38;;;;;;;-0.92;80.84;93415.03;5048504;28;20025;-47
2023/01/30 08:21:50;;;;;;;23.40;12.90;;;;;;;-1.02;80.56;93417.13;5048202;28;20017;-48
2023/01/30 08:24:16;;;;;;;21.77;12.35;;;;;;;-1.16;81.05;93419.91;5048671;28;20086;-48
2023/01/30 08:26:41;;;;;;;28.58;13.18;;;;;;;-1.12;82.15;93412.31;5051067;28;20032;-47
2023/01/30 08:29:07;;;;;;;31.20;14.30;;;;;;;-0.87;80.68;93414.34;5048445;28;20412;-47
2023/01/30 08:31:32;;;;;;;25.50;13.38;;;;;;;-0.98;81.02;93416.94;5047983;28;20505;-49
2023/01/30 08:33:57;;;;;;;19.75;10.80;;;;;;;-0.77;80.03;93413.72;5051739;28;20664;-47
2023/01/30 08:36:23;;;;;;;22.35;11.13;;;;;;;-0.82;79.10;93416.34;5067802;28;20024;-50
2023/01/30 08:38:48;;;;;;;26.45;11.68;;;;;;;-0.94;79.86;93412.03;5068345;28;20042;-48
2023/01/30 08:41:14;;;;;;;20.08;11.52;;;;;;;-1.02;79.93;93405.56;5068371;28;20089;-48
2023/01/30 08:43:39;;;;;;;22.60;11.63;;;;;;;-1.02;79.56;93403.56;5068227;28;20118;-48
2023/01/30 08:46:05;;;;;;;29.00;12.20;;;;;;;-1.03;79.58;93398.63;5068003;28;20644;-47
2023/01/30 08:48:30;;;;;;;25.13;11.82;;;;;;;-0.94;79.62;93401.97;5058786;28;20021;-47
2023/01/30 08:50:56;;;;;;;22.60;11.00;;;;;;;-0.82;78.32;93408.22;5067336;28;20028;-47
2023/01/30 08:53:22;;;;;;;27.77;14.00;;;;;;;-0.96;79.73;93403.66;5068085;28;20059;-47
2023/01/30 08:55:51;;;;;;;25.42;13.13;;;;;;;-0.83;78.52;93412.16;5067770;28;20040;-48
2023/01/30 08:58:18;;;;;;;23.00;11.85;;;;;;;-0.76;78.81;93412.47;5059694;28;20565;-47
2023/01/30 09:00:43;;;;;;;25.45;12.90;;;;;;;-0.77;78.73;93408.28;5047885;28;20028;-47
2023/01/30 09:03:10;;;;;;;23.27;12.82;;;;;;;-0.57;78.09;93410.22;5047101;28;20512;-47
2023/01/30 09:05:36;;;;;;;20.08;10.90;;;;;;;-0.41;76.72;93398.78;5051161;28;20039;-48
2023/01/30 09:08:01;;;;;;;22.13;11.02;;;;;;;-0.98;78.54;93387.13;5051217;28;20021;-51
2023/01/30 09:10:27;;;;;;;27.02;12.27;;;;;;;-0.72;78.03;93384.44;5043360;28;20017;-48
2023/01/30 09:12:52;;;;;;;24.20;11.43;;;;;;;-0.58;78.27;93383.56;5046854;28;20036;-47
2023/01/30 09:15:18;;;;;;;21.67;11.40;;;;;;;-0.45;77.24;93390.13;5047447;28;20036;-48
2023/01/30 09:17:43;;;;;;;18.92;11.30;;;;;;;-0.44;75.98;93383.47;5047046;28;20021;-47
2023/01/30 09:20:10;;;;;;;21.48;11.65;;;;;;;-0.47;77.44;93381.72;5058630;28;20036;-48
2023/01/30 09:22:36;;;;;;;22.60;11.15;;;;;;;-0.51;77.38;93378.47;5062044;28;20055;-48
2023/01/30 09:25:02;;;;;;;20.15;10.75;;;;;;;-0.33;76.88;93367.31;5067516;28;20039;-47
2023/01/30 09:27:27;;;;;;;20.92;10.77;;;;;;;-0.18;75.88;93372.59;5051442;28;20405;-47
2023/01/30 09:29:53;;;;;;;20.90;11.05;;;;;;;-0.25;75.43;93373.78;5053756;28;20522;-49
2023/01/30 09:32:18;;;;;;;23.13;11.13;;;;;;;-0.37;75.96;93372.19;5057678;28;20704;-47
2023/01/30 09:34:43;;;;;;;20.85;11.10;;;;;;;-0.21;75.59;93368.13;5047208;28;20052;-48
2023/01/30 09:37:09;;;;;;;22.15;12.68;;;;;;;-0.34;75.13;93363.09;5047170;28;20056;-47
2023/01/30 09:39:34;;;;;;;21.30;11.60;;;;;;;-0.45;76.36;93367.66;5046867;28;20021;-49
2023/01/30 09:42:00;;;;;;;25.67;11.98;;;;;;;-0.43;76.53;93370.66;5047132;28;20040;-47
2023/01/30 09:45:03;;;;;;;25.25;11.90;;;;;;;-0.21;75.51;93362.69;5047340;28;20033;-48
2023/01/30 09:47:41;;;;;;;18.10;9.75;;;;;;;-0.39;74.92;93361.06;5046199;28;20044;-48
2023/01/30 09:50:18;;;;;;;23.35;11.63;;;;;;;-0.28;75.12;93360.44;5052423;28;20492;-47
2023/01/30 09:53:03;;;;;;;18.30;9.40;;;;;;;-0.42;76.27;93353.91;5064013;28;20056;-48
2023/01/30 09:55:32;;;;;;;20.33;12.20;;;;;;;-0.22;76.78;93350.38;5066957;28;20036;-48
2023/01/30 09:57:59;;;;;;;20.83;10.07;;;;;;;-0.22;75.19;93347.66;5070222;28;20036;-47
2023/01/30 10:00:36;;;;;;;21.05;10.18;;;;;;;-0.20;75.14;93340.53;5062355;28;20033;-48
2023/01/30 10:03:19;;;;;;;19.65;9.93;;;;;;;-0.29;75.84;93339.97;5051356;28;20025;-47
2023/01/30 10:06:01;;;;;;;19.73;10.82;;;;;;;-0.23;75.44;93330.63;5049787;28;20021;-48
2023/01/30 10:09:02;;;;;;;23.58;11.68;;;;;;;-0.07;74.92;93324.59;5049854;28;20158;-47
2023/01/30 10:12:05;;;;;;;24.70;11.40;;;;;;;0.03;75.07;93319.72;5050140;28;20035;-48
2023/01/30 10:14:55;;;;;;;27.33;13.70;;;;;;;0.02;73.94;93312.06;5049428;28;20033;-47
2023/01/30 10:17:48;;;;;;;23.67;12.73;;;;;;;0.11;73.14;93312.59;5050964;28;20086;-47
2023/01/30 10:20:31;;;;;;;23.42;12.27;;;;;;;-0.04;75.30;93304.63;5053043;28;20136;-47
2023/01/30 10:23:18;;;;;;;16.48;9.77;;;;;;;0.12;73.63;93305.19;5069478;28;20058;-45
2023/01/30 10:25:50;;;;;;;17.45;8.90;;;;;;;-0.21;73.41;93298.34;5068948;28;20113;-47
2023/01/30 10:28:25;;;;;;;17.67;9.18;;;;;;;-0.18;73.84;93291.22;5049129;28;20036;-49
2023/01/30 10:31:01;;;;;;;20.98;10.40;;;;;;;0.00;74.38;93280.72;5050678;28;20404;-49
2023/01/30 10:33:34;;;;;;;21.92;11.57;;;;;;;-0.31;75.09;93280.03;5050746;28;20053;-47
2023/01/30 10:36:15;;;;;;;18.67;9.70;;;;;;;0.14;74.24;93281.03;5056777;28;20545;-48
2023/01/30 10:38:46;;;;;;;15.32;9.13;;;;;;;-0.03;73.44;93270.09;5059492;28;20034;-47
2023/01/30 10:41:29;;;;;;;16.15;9.02;;;;;;;0.06;73.55;93267.19;5059530;28;20029;-47
2023/01/30 10:44:13;;;;;;;15.57;8.68;;;;;;;-0.24;73.81;93263.31;5051615;28;20120;-47
2023/01/30 10:46:57;;;;;;;13.77;8.57;;;;;;;-0.07;72.84;93253.28;5050767;28;20108;-47
2023/01/30 10:49:51;;;;;;;19.08;11.02;;;;;;;-0.17;74.84;93254.69;5049011;28;20036;-47
2023/01/30 10:52:41;;;;;;;16.17;9.35;;;;;;;-0.14;73.98;93248.31;5044688;28;20032;-48
2023/01/30 10:55:12;;;;;;;17.08;9.57;;;;;;;-0.22;75.03;93239.88;5058628;28;20098;-47
2023/01/30 10:57:53;;;;;;;17.85;9.23;;;;;;;0.13;73.42;93249.69;5060869;28;20058;-48
2023/01/30 11:00:28;;;;;;;16.85;9.10;;;;;;;0.11;73.27;93233.16;5061528;28;20409;-47
2023/01/30 11:03:21;;;;;;;19.33;10.57;;;;;;;-0.39;74.80;93236.31;5057329;28;20032;-48
2023/01/30 11:06:17;;;;;;;19.52;9.65;;;;;;;-0.56;75.19;93226.59;5069949;28;20642;-47
2023/01/30 11:08:43;;;;;;;22.70;10.13;;;;;;;-0.93;77.55;93202.91;5054582;28;20040;-46
2023/01/30 11:11:46;;;;;;;18.00;9.68;;;;;;;-0.57;75.71;93215.00;5049865;28;20116;-46
2023/01/30 11:14:12;;;;;;;21.65;10.98;;;;;;;-0.43;75.07;93210.63;5049101;28;20063;-47
2023/01/30 11:16:45;;;;;;;18.67;10.57;;;;;;;-0.51;74.68;93207.66;5062786;28;20032;-48
2023/01/30 11:19:11;;;;;;;20.27;10.48;;;;;;;-0.64;75.98;93199.19;5069656;28;20043;-47
2023/01/30 11:21:41;;;;;;;19.10;11.25;;;;;;;-0.50;75.11;93195.59;5069847;28;20036;-48
2023/01/30 11:24:16;;;;;;;15.23;9.40;;;;;;;-0.53;74.50;93180.28;5069311;28;20025;-47
2023/01/30 11:26:41;;;;;;;16.42;8.68;;;;;;;-0.60;74.20;93183.44;5060000;28;20567;-48
2023/01/30 11:29:25;;;;;;;18.70;10.63;;;;;;;-0.50;74.09;93178.56;5049650;28;20059;-47
2023/01/30 11:31:51;;;;;;;18.45;10.27;;;;;;;-0.44;74.23;93171.19;5051371;28;20045;-50
2023/01/30 11:34:19;;;;;;;14.95;9.10;;;;;;;-0.45;73.00;93178.59;5051315;28;20078;-47
2023/01/30 11:36:46;;;;;;;16.90;8.82;;;;;;;-0.56;72.67;93173.09;5038393;28;20232;-46